Time;durP1;ratioP1;P1;durP2;ratioP2;P2;SDS_P1;SDS_P2;PMS_P1;PMS_P2;Temp;Humidity;BMP_temperature;BMP_pressure;BME280_temperature;BME280_humidity;BME280_pressure;Samples;Min_cycle;Max_cycle;Signal;HPM_P1;HPM_P2
2022/10/11 00:01:20;;;;;;;7.03;2.20;;;13.80;99.90;;;;;;5030156;28;20457;-82
2022/10/11 00:03:46;;;;;;;4.30;1.93;;;13.80;99.90;;;;;;5029535;28;20450;-81
2022/10/11 00:06:13;;;;;;;5.53;2.53;;;13.70;99.90;;;;;;5025893;28;20513;-82
2022/10/11 00:08:40;;;;;;;4.97;2.47;;;13.70;99.90;;;;;;5023395;28;20486;-81
2022/10/11 00:11:08;;;;;;;7.00;2.10;;;13.70;99.90;;;;;;5016915;28;20451;-82
2022/10/11 00:13:35;;;;;;;5.20;2.50;;;13.60;99.90;;;;;;5023924;28;20462;-81
2022/10/11 00:16:07;;;;;;;9.13;3.10;;;13.60;99.90;;;;;;5023656;28;20481;-82
2022/10/11 00:18:34;;;;;;;3.50;1.77;;;13.60;99.90;;;;;;5019679;28;20495;-83
2022/10/11 00:21:07;;;;;;;6.23;2.07;;;13.60;99.90;;;;;;5022039;28;20450;-80
2022/10/11 00:23:34;;;;;;;7.93;2.70;;;13.70;99.90;;;;;;5020884;28;20947;-81
2022/10/11 00:26:04;;;;;;;6.50;2.40;;;13.80;99.90;;;;;;5021176;28;20522;-81
2022/10/11 00:28:32;;;;;;;12.67;2.47;;;13.60;99.90;;;;;;5017732;28;20449;-82
2022/10/11 00:30:59;;;;;;;4.40;2.30;;;13.60;99.90;;;;;;5021756;28;20481;-83
2022/10/11 00:33:25;;;;;;;5.77;2.30;;;13.50;99.90;;;;;;5020197;28;20556;-82
2022/10/11 00:35:52;;;;;;;8.43;2.40;;;13.50;99.90;;;;;;5014967;28;21379;-82
2022/10/11 00:38:19;;;;;;;7.53;1.97;;;13.50;99.90;;;;;;5018802;28;20457;-82
2022/10/11 00:40:47;;;;;;;8.07;2.50;;;13.40;99.90;;;;;;5024123;28;20465;-81
2022/10/11 00:43:20;;;;;;;6.50;2.60;;;13.50;99.90;;;;;;5019820;28;20450;-83
2022/10/11 00:45:55;;;;;;;7.80;2.60;;;13.40;99.90;;;;;;5027311;28;20486;-84
2022/10/11 00:48:43;;;;;;;8.60;3.00;;;13.40;99.90;;;;;;5017636;28;20477;-83
2022/10/11 00:51:19;;;;;;;5.97;2.10;;;13.40;99.90;;;;;;5018857;28;20730;-82
2022/10/11 00:53:48;;;;;;;8.07;2.67;;;13.30;99.90;;;;;;5018931;28;20446;-81
2022/10/11 00:56:32;;;;;;;10.27;2.97;;;13.30;99.90;;;;;;5019133;28;20557;-82
2022/10/11 00:59:02;;;;;;;9.17;3.30;;;13.30;99.90;;;;;;5017860;28;20458;-79
2022/10/11 01:01:29;;;;;;;7.10;2.47;;;13.30;99.90;;;;;;5021033;28;20477;-82
2022/10/11 01:03:56;;;;;;;5.00;2.10;;;13.30;99.90;;;;;;5021331;28;20461;-82
2022/10/11 01:06:23;;;;;;;5.90;2.70;;;13.30;99.90;;;;;;5021626;28;20490;-81
2022/10/11 01:08:51;;;;;;;6.83;2.83;;;13.20;99.90;;;;;;5027403;28;20481;-80
2022/10/11 01:11:22;;;;;;;7.53;2.40;;;13.20;99.90;;;;;;5013215;28;20450;-81
2022/10/11 01:14:20;;;;;;;8.23;2.93;;;13.10;99.90;;;;;;5030628;28;20533;-81
2022/10/11 01:17:13;;;;;;;5.83;2.00;;;13.10;99.90;;;;;;5016244;28;20557;-82
2022/10/11 01:20:20;;;;;;;4.47;1.90;;;13.00;99.90;;;;;;5017326;28;20449;-81
2022/10/11 01:23:00;;;;;;;4.90;2.10;;;12.90;99.90;;;;;;5016443;28;20479;-82
2022/10/11 01:26:23;;;;;;;4.40;2.13;;;12.90;99.90;;;;;;5021401;28;20522;-83
2022/10/11 01:29:13;;;;;;;6.40;2.23;;;13.00;99.90;;;;;;4939944;29;20938;-83
2022/10/11 01:31:43;;;;;;;8.07;3.57;;;13.00;99.90;;;;;;4934414;29;20953;-82
2022/10/11 01:34:34;;;;;;;10.00;2.47;;;12.90;99.90;;;;;;4990463;28;20478;-83
2022/10/11 01:37:14;;;;;;;12.80;2.40;;;12.90;99.90;;;;;;5015337;28;20517;-82
2022/10/11 01:39:47;;;;;;;6.00;2.90;;;12.90;99.90;;;;;;5023748;28;20457;-83
2022/10/11 01:42:16;;;;;;;6.30;2.60;;;12.80;99.90;;;;;;5023242;28;20496;-83
2022/10/11 01:44:46;;;;;;;7.87;2.60;;;12.80;99.90;;;;;;5020811;28;20444;-80
2022/10/11 01:47:17;;;;;;;7.73;3.13;;;12.70;99.90;;;;;;5011806;28;20502;-82
2022/10/11 01:49:44;;;;;;;3.83;2.10;;;12.80;99.90;;;;;;5014224;28;20447;-82
2022/10/11 01:52:11;;;;;;;4.23;2.10;;;12.80;99.90;;;;;;5015931;28;20454;-81
2022/10/11 01:54:59;;;;;;;3.07;1.80;;;12.80;99.90;;;;;;5018799;28;20967;-81
2022/10/11 01:58:00;;;;;;;6.27;2.23;;;12.80;99.90;;;;;;5005903;28;20451;-79
2022/10/11 02:00:56;;;;;;;6.20;2.00;;;12.80;99.90;;;;;;5012592;28;20462;-80
2022/10/11 02:03:58;;;;;;;7.67;2.47;;;12.80;99.90;;;;;;5037344;28;20497;-83
2022/10/11 02:06:38;;;;;;;6.03;3.70;;;12.80;99.90;;;;;;5007590;28;21121;-81
2022/10/11 02:09:13;;;;;;;5.87;2.03;;;12.80;99.90;;;;;;5018964;28;20458;-82
2022/10/11 02:11:40;;;;;;;6.87;2.40;;;12.80;99.90;;;;;;5011748;28;20457;-83
2022/10/11 02:14:26;;;;;;;7.10;2.57;;;12.80;99.90;;;;;;5013665;28;20535;-81
2022/10/11 02:17:03;;;;;;;3.33;1.60;;;12.80;99.90;;;;;;5021368;28;20540;-81
2022/10/11 02:19:37;;;;;;;7.13;2.90;;;12.70;99.90;;;;;;5021108;28;20457;-83
2022/10/11 02:22:09;;;;;;;7.23;2.27;;;12.70;99.90;;;;;;5016154;28;20454;-81
2022/10/11 02:24:39;;;;;;;8.60;1.87;;;12.70;99.90;;;;;;5014943;28;20450;-81
2022/10/11 02:27:08;;;;;;;6.20;1.90;;;12.70;99.90;;;;;;5019798;28;20837;-83
2022/10/11 02:29:37;;;;;;;4.70;1.80;;;12.70;99.90;;;;;;5009214;28;20524;-82
2022/10/11 02:32:06;;;;;;;8.83;3.00;;;12.70;99.90;;;;;;5016429;28;20485;-83
2022/10/11 02:34:43;;;;;;;4.73;2.53;;;12.80;99.90;;;;;;5014315;28;20458;-82
2022/10/11 02:37:16;;;;;;;9.67;2.97;;;12.70;99.90;;;;;;5016647;28;20449;-83
2022/10/11 02:40:06;;;;;;;11.53;3.30;;;12.70;99.90;;;;;;5017331;28;20456;-80
2022/10/11 02:42:37;;;;;;;8.50;2.90;;;12.60;99.90;;;;;;5020677;28;20450;-82
2022/10/11 02:45:11;;;;;;;6.67;3.20;;;12.60;99.90;;;;;;5016813;28;20492;-81
2022/10/11 02:47:40;;;;;;;6.63;2.80;;;12.50;99.90;;;;;;5018212;28;20469;-80
2022/10/11 02:50:09;;;;;;;6.53;2.47;;;12.50;99.90;;;;;;5021185;28;20466;-82
2022/10/11 02:52:35;;;;;;;8.73;3.90;;;12.50;99.90;;;;;;5013177;28;20481;-80
2022/10/11 02:55:03;;;;;;;8.90;3.20;;;12.50;99.90;;;;;;5017129;28;20600;-82
2022/10/11 02:57:30;;;;;;;6.30;3.10;;;12.50;99.90;;;;;;5017481;28;20442;-82
2022/10/11 02:59:56;;;;;;;9.50;3.63;;;12.50;99.90;;;;;;5024366;28;20577;-82
2022/10/11 03:02:23;;;;;;;6.40;3.07;;;12.50;99.90;;;;;;5021326;28;20439;-82
2022/10/11 03:04:50;;;;;;;5.50;3.27;;;12.50;99.90;;;;;;5036832;28;20442;-82
2022/10/11 03:07:16;;;;;;;7.73;3.27;;;12.50;99.90;;;;;;5037441;28;20478;-81
2022/10/11 03:09:44;;;;;;;12.03;3.87;;;12.40;99.90;;;;;;5034425;28;20481;-81
2022/10/11 03:12:10;;;;;;;8.07;3.70;;;12.40;99.90;;;;;;5019783;28;20450;-82
2022/10/11 03:14:37;;;;;;;11.47;3.63;;;12.50;99.90;;;;;;5019817;28;20455;-81
2022/10/11 03:17:04;;;;;;;7.60;3.63;;;12.40;99.90;;;;;;5013830;28;20560;-83
2022/10/11 03:19:50;;;;;;;7.30;3.23;;;12.40;99.90;;;;;;5004594;28;20448;-81
2022/10/11 03:22:17;;;;;;;10.50;3.80;;;12.40;99.90;;;;;;5010793;28;20462;-83
2022/10/11 03:24:44;;;;;;;7.90;3.40;;;12.40;99.90;;;;;;5017722;28;20485;-82
2022/10/11 03:27:11;;;;;;;13.47;3.53;;;12.30;99.90;;;;;;5015877;28;20505;-83
2022/10/11 03:29:37;;;;;;;12.47;4.00;;;12.30;99.90;;;;;;5013417;28;20476;-83
2022/10/11 03:32:04;;;;;;;7.20;3.47;;;12.30;99.90;;;;;;5003284;28;20913;-83
2022/10/11 03:34:31;;;;;;;11.10;4.60;;;12.30;99.90;;;;;;5005511;28;20460;-83
2022/10/11 03:36:57;;;;;;;11.47;5.53;;;12.30;99.90;;;;;;5012179;28;20585;-81
2022/10/11 03:39:24;;;;;;;4.53;3.40;;;12.40;99.90;;;;;;5011438;28;20898;-82
2022/10/11 03:41:51;;;;;;;13.93;5.27;;;12.40;99.90;;;;;;5011133;28;20446;-83
2022/10/11 03:44:17;;;;;;;7.93;4.10;;;12.40;99.90;;;;;;5017257;28;20485;-83
2022/10/11 03:46:44;;;;;;;6.70;4.60;;;12.40;99.90;;;;;;5020295;28;20689;-83
2022/10/11 03:49:11;;;;;;;11.50;3.80;;;12.30;99.90;;;;;;5022836;28;21225;-83
2022/10/11 03:51:37;;;;;;;13.27;6.07;;;12.30;99.90;;;;;;5008542;28;20448;-83
2022/10/11 03:54:04;;;;;;;7.13;3.80;;;12.30;99.90;;;;;;5005362;28;20516;-82
2022/10/11 03:56:31;;;;;;;9.23;4.10;;;12.20;99.90;;;;;;5021103;28;20450;-81
2022/10/11 03:58:58;;;;;;;11.33;4.90;;;12.20;99.90;;;;;;5034625;28;20461;-82
2022/10/11 04:01:24;;;;;;;13.70;4.43;;;12.30;99.90;;;;;;5033735;28;20473;-82
2022/10/11 04:03:55;;;;;;;9.17;4.50;;;12.20;99.90;;;;;;5013024;28;20450;-81
2022/10/11 04:06:22;;;;;;;39.30;7.60;;;12.20;99.90;;;;;;5010425;28;20486;-80
2022/10/11 04:08:48;;;;;;;10.53;4.23;;;12.20;99.90;;;;;;5014449;28;20978;-82
2022/10/11 04:11:15;;;;;;;11.13;4.47;;;12.20;99.90;;;;;;5017357;28;20478;-81
2022/10/11 04:13:42;;;;;;;15.57;4.57;;;12.50;99.90;;;;;;5020030;28;20443;-81
2022/10/11 04:16:08;;;;;;;14.53;4.00;;;12.40;99.90;;;;;;5029693;28;20504;-83
2022/10/11 04:18:35;;;;;;;7.30;3.57;;;12.40;99.90;;;;;;5028344;28;20454;-83
2022/10/11 04:21:02;;;;;;;8.57;4.73;;;12.30;99.90;;;;;;5017810;28;20456;-81
2022/10/11 04:23:30;;;;;;;12.67;4.13;;;12.30;99.90;;;;;;5012918;28;20897;-82
2022/10/11 04:25:57;;;;;;;11.93;3.77;;;12.20;99.90;;;;;;5024556;28;20532;-82
2022/10/11 04:28:24;;;;;;;8.40;3.80;;;12.10;99.90;;;;;;5010108;28;20552;-83
2022/10/11 04:30:51;;;;;;;10.73;4.50;;;12.00;99.90;;;;;;5012888;28;21843;-81
2022/10/11 04:33:17;;;;;;;9.60;3.00;;;11.90;99.90;;;;;;5012600;28;20494;-82
2022/10/11 04:35:44;;;;;;;11.83;4.20;;;11.80;99.90;;;;;;5004682;28;20473;-82
2022/10/11 04:38:10;;;;;;;8.70;3.57;;;11.80;99.90;;;;;;5024718;28;20482;-80
2022/10/11 04:40:37;;;;;;;7.73;3.87;;;11.70;99.90;;;;;;5023499;28;20482;-80
2022/10/11 04:43:04;;;;;;;11.40;3.77;;;11.60;99.90;;;;;;5026334;28;20453;-84
2022/10/11 04:45:31;;;;;;;9.93;3.40;;;11.50;99.90;;;;;;5019445;28;20455;-82
2022/10/11 04:47:57;;;;;;;7.73;3.17;;;11.30;99.90;;;;;;5014580;28;20520;-83
2022/10/11 04:50:24;;;;;;;6.97;2.90;;;11.20;99.90;;;;;;5019016;28;20492;-83
2022/10/11 04:52:50;;;;;;;8.33;3.13;;;11.10;99.90;;;;;;5018253;28;20489;-83
2022/10/11 04:55:17;;;;;;;6.13;3.90;;;11.10;99.90;;;;;;5012471;28;20477;-83
2022/10/11 04:57:44;;;;;;;9.10;4.47;;;11.00;99.90;;;;;;5013242;28;20855;-83
2022/10/11 05:00:11;;;;;;;8.07;3.60;;;10.90;99.90;;;;;;5010979;28;20520;-82
2022/10/11 05:02:38;;;;;;;8.83;4.27;;;10.80;99.90;;;;;;5010786;28;20489;-83
2022/10/11 05:05:05;;;;;;;12.90;5.57;;;10.70;99.90;;;;;;5008106;28;20497;-82
2022/10/11 05:07:31;;;;;;;10.20;4.50;;;10.60;99.90;;;;;;5026401;28;20486;-82
2022/10/11 05:09:58;;;;;;;16.93;7.40;;;10.60;99.90;;;;;;5035903;28;20450;-82
2022/10/11 05:12:25;;;;;;;14.50;7.60;;;10.70;99.90;;;;;;5028299;28;20458;-81
2022/10/11 05:14:51;;;;;;;16.53;6.47;;;10.70;99.90;;;;;;5017723;28;20485;-80
2022/10/11 05:17:18;;;;;;;15.20;7.03;;;10.60;99.90;;;;;;5024246;28;20501;-81
2022/10/11 05:19:45;;;;;;;11.40;6.73;;;10.60;99.90;;;;;;5026464;28;20516;-82
2022/10/11 05:22:11;;;;;;;16.53;7.40;;;10.40;99.90;;;;;;5024001;28;20549;-83
2022/10/11 05:24:38;;;;;;;16.80;7.50;;;10.40;99.90;;;;;;5005249;28;20505;-82
2022/10/11 05:27:05;;;;;;;12.97;7.33;;;10.40;99.90;;;;;;5011954;28;20488;-82
2022/10/11 05:29:32;;;;;;;17.20;9.00;;;10.40;99.90;;;;;;5010365;28;21297;-82
2022/10/11 05:31:59;;;;;;;18.30;9.30;;;10.60;99.90;;;;;;5011175;28;20877;-82
2022/10/11 05:34:25;;;;;;;18.03;9.50;;;10.60;99.90;;;;;;5014807;28;20457;-83
2022/10/11 05:36:52;;;;;;;18.00;9.70;;;10.60;99.90;;;;;;5014617;28;20528;-83
2022/10/11 05:39:18;;;;;;;19.97;9.97;;;10.60;99.90;;;;;;5012001;28;20493;-82
2022/10/11 05:41:45;;;;;;;25.97;11.33;;;10.80;99.90;;;;;;5014906;28;20459;-82
2022/10/11 05:44:12;;;;;;;22.97;12.53;;;10.70;99.90;;;;;;5005319;28;20450;-82
2022/10/11 05:46:39;;;;;;;18.00;10.13;;;10.70;99.90;;;;;;5013720;28;20478;-82
2022/10/11 05:49:05;;;;;;;20.63;12.37;;;10.80;99.90;;;;;;5016390;28;20493;-80
2022/10/11 05:51:32;;;;;;;25.57;12.40;;;10.90;99.90;;;;;;5017371;28;20885;-83
2022/10/11 05:53:59;;;;;;;29.47;12.07;;;11.00;99.90;;;;;;5017570;28;20468;-83
2022/10/11 05:56:25;;;;;;;31.63;13.40;;;10.90;99.90;;;;;;5013186;28;20483;-83
2022/10/11 05:58:52;;;;;;;37.07;13.87;;;11.10;99.90;;;;;;5017831;28;20979;-82
2022/10/11 06:01:25;;;;;;;36.87;13.70;;;11.10;99.90;;;;;;5018224;28;20449;-83
2022/10/11 06:03:53;;;;;;;38.83;13.57;;;11.10;99.90;;;;;;5013115;28;20501;-82
2022/10/11 06:06:19;;;;;;;36.40;14.63;;;11.00;99.90;;;;;;5017225;28;20544;-82
2022/10/11 06:08:46;;;;;;;35.13;16.00;;;11.10;99.90;;;;;;5014490;28;20462;-83
2022/10/11 06:11:21;;;;;;;28.60;13.50;;;11.10;99.90;;;;;;5011628;28;20485;-83
2022/10/11 06:13:48;;;;;;;27.43;13.50;;;11.00;99.90;;;;;;5016175;28;20469;-84
2022/10/11 06:16:15;;;;;;;27.43;12.10;;;11.00;99.90;;;;;;5014665;28;20543;-83
2022/10/11 06:18:41;;;;;;;27.87;13.87;;;11.10;99.90;;;;;;5015557;28;20952;-83
2022/10/11 06:21:08;;;;;;;32.33;14.73;;;11.10;99.90;;;;;;5020877;28;20497;-83
2022/10/11 06:23:35;;;;;;;32.63;12.73;;;11.50;99.90;;;;;;5011039;28;20455;-83
2022/10/11 06:26:07;;;;;;;37.67;14.67;;;11.60;99.90;;;;;;5015733;28;20478;-83
2022/10/11 06:28:35;;;;;;;32.30;12.17;;;11.50;99.90;;;;;;5015241;28;20565;-83
2022/10/11 06:31:04;;;;;;;25.23;11.57;;;11.50;99.90;;;;;;5011853;28;20450;-83
2022/10/11 06:33:31;;;;;;;35.30;13.80;;;11.50;99.90;;;;;;5012289;28;20529;-82
2022/10/11 06:35:59;;;;;;;40.17;16.10;;;11.50;99.90;;;;;;5016067;28;20821;-81
2022/10/11 06:38:26;;;;;;;34.83;16.27;;;11.40;99.90;;;;;;5017102;28;20458;-83
2022/10/11 06:40:53;;;;;;;37.70;15.57;;;11.30;99.90;;;;;;5010424;28;20481;-82
2022/10/11 06:43:20;;;;;;;31.53;14.53;;;11.10;99.90;;;;;;5008716;28;20941;-84
2022/10/11 06:45:46;;;;;;;26.73;15.30;;;11.10;99.90;;;;;;5011880;28;20983;-83
2022/10/11 06:48:13;;;;;;;28.40;14.87;;;11.30;99.90;;;;;;5012341;28;20501;-84
2022/10/11 06:50:40;;;;;;;36.60;14.67;;;11.30;99.90;;;;;;5006778;28;20450;-83
2022/10/11 06:53:25;;;;;;;32.63;14.53;;;11.30;99.90;;;;;;5013043;28;20454;-83
2022/10/11 06:55:52;;;;;;;31.57;14.63;;;11.40;99.90;;;;;;5003247;28;21075;-83
2022/10/11 06:58:19;;;;;;;30.73;15.03;;;11.20;99.90;;;;;;5007702;28;20851;-83
2022/10/11 07:00:45;;;;;;;32.90;16.50;;;11.30;99.90;;;;;;5008488;28;20458;-84
2022/10/11 07:03:12;;;;;;;33.67;17.33;;;11.40;99.90;;;;;;5007653;28;20462;-83
2022/10/11 07:05:39;;;;;;;31.10;14.07;;;11.30;99.90;;;;;;5015962;28;20486;-83
2022/10/11 07:08:05;;;;;;;31.47;14.13;;;11.30;99.90;;;;;;5013964;28;20521;-83
2022/10/11 07:10:34;;;;;;;29.77;15.30;;;11.40;99.90;;;;;;5014720;28;20547;-83
2022/10/11 07:13:01;;;;;;;30.80;15.77;;;11.30;99.90;;;;;;5004579;28;20474;-83
2022/10/11 07:15:27;;;;;;;31.77;16.00;;;11.40;99.90;;;;;;5011503;28;20555;-82
2022/10/11 07:17:54;;;;;;;35.47;17.10;;;11.30;99.90;;;;;;5027635;28;20457;-83
2022/10/11 07:20:20;;;;;;;40.37;19.13;;;11.20;99.90;;;;;;5034603;28;20457;-83
2022/10/11 07:22:47;;;;;;;28.70;18.43;;;11.00;99.90;;;;;;5020780;28;20998;-81
2022/10/11 07:25:13;;;;;;;36.20;16.47;;;10.90;99.90;;;;;;5017807;28;20561;-82
2022/10/11 07:27:40;;;;;;;35.43;18.53;;;11.00;99.90;;;;;;5011943;28;20477;-81
2022/10/11 07:30:07;;;;;;;34.03;17.30;;;11.20;99.90;;;;;;5027335;28;20463;-83
2022/10/11 07:32:34;;;;;;;34.60;17.80;;;11.30;99.90;;;;;;5011865;28;21042;-83
2022/10/11 07:35:00;;;;;;;32.33;17.40;;;11.40;99.90;;;;;;5015275;28;20446;-83
2022/10/11 07:37:27;;;;;;;36.30;18.80;;;11.40;99.90;;;;;;5014051;28;20512;-82
2022/10/11 07:39:54;;;;;;;36.70;17.33;;;11.40;99.90;;;;;;5001299;28;20874;-82
2022/10/11 07:42:21;;;;;;;32.67;17.90;;;11.50;99.90;;;;;;5011621;28;20488;-83
2022/10/11 07:44:48;;;;;;;33.60;19.20;;;11.40;99.90;;;;;;5032023;28;20831;-81
2022/10/11 07:47:14;;;;;;;38.93;19.97;;;11.50;99.90;;;;;;5031607;28;20470;-82
2022/10/11 07:49:41;;;;;;;30.23;18.07;;;11.50;99.90;;;;;;5031363;28;20439;-82
2022/10/11 07:52:07;;;;;;;34.93;18.97;;;11.40;99.90;;;;;;5004111;28;20458;-84
2022/10/11 07:54:34;;;;;;;37.60;20.23;;;11.40;99.90;;;;;;5015500;28;20449;-83
2022/10/11 07:57:00;;;;;;;40.57;20.33;;;11.50;99.90;;;;;;5016824;28;20501;-83
2022/10/11 07:59:27;;;;;;;36.50;20.40;;;11.60;99.90;;;;;;5014086;28;20450;-81
2022/10/11 08:01:53;;;;;;;40.20;21.67;;;11.60;99.90;;;;;;5015546;28;20989;-83
2022/10/11 08:04:20;;;;;;;36.60;19.93;;;11.50;99.90;;;;;;5008663;28;20446;-83
2022/10/11 08:06:47;;;;;;;36.70;20.70;;;11.50;99.90;;;;;;5014888;28;20548;-82
2022/10/11 08:09:18;;;;;;;35.33;19.70;;;11.40;99.90;;;;;;5016598;28;20494;-83
2022/10/11 08:11:44;;;;;;;40.20;20.80;;;11.40;99.90;;;;;;5014629;28;20509;-82
2022/10/11 08:14:11;;;;;;;39.40;21.77;;;11.40;99.90;;;;;;5029109;28;20669;-83
2022/10/11 08:16:38;;;;;;;46.87;22.57;;;11.50;99.90;;;;;;5025521;28;20481;-81
2022/10/11 08:19:05;;;;;;;43.07;20.60;;;11.40;99.90;;;;;;5016024;28;20466;-82
2022/10/11 08:21:32;;;;;;;37.33;21.67;;;11.30;99.90;;;;;;5033051;28;20444;-82
2022/10/11 08:24:01;;;;;;;38.87;20.83;;;11.50;99.90;;;;;;5031051;28;20439;-81
2022/10/11 08:26:27;;;;;;;39.17;20.50;;;11.70;99.90;;;;;;5029835;28;20509;-81
2022/10/11 08:28:54;;;;;;;43.83;23.87;;;11.80;99.90;;;;;;5015609;28;20475;-83
2022/10/11 08:31:21;;;;;;;39.17;22.53;;;11.60;99.90;;;;;;5025574;28;20502;-81
2022/10/11 08:33:47;;;;;;;42.93;21.80;;;11.40;99.90;;;;;;5012909;28;20473;-84
2022/10/11 08:36:14;;;;;;;45.97;23.47;;;11.60;99.90;;;;;;5004120;28;20534;-82
2022/10/11 08:38:41;;;;;;;45.53;22.37;;;11.70;99.90;;;;;;5005554;28;20455;-83
2022/10/11 08:41:30;;;;;;;44.87;23.40;;;11.60;99.90;;;;;;5012706;28;20959;-83
2022/10/11 08:44:17;;;;;;;46.33;23.63;;;11.70;99.90;;;;;;5005587;28;20518;-83
2022/10/11 08:46:49;;;;;;;52.90;24.30;;;11.70;99.90;;;;;;5006310;28;21063;-83
2022/10/11 08:49:18;;;;;;;49.77;24.47;;;11.50;99.90;;;;;;5007547;28;20435;-83
2022/10/11 08:51:51;;;;;;;40.73;21.43;;;11.50;99.90;;;;;;5004659;28;20508;-84
2022/10/11 08:54:46;;;;;;;35.87;17.87;;;11.70;99.90;;;;;;5012527;28;20466;-82
2022/10/11 08:57:16;;;;;;;43.87;22.30;;;11.90;99.90;;;;;;5011345;28;20467;-83
2022/10/11 08:59:50;;;;;;;43.10;20.63;;;11.80;99.90;;;;;;5011299;28;20998;-84
2022/10/11 09:02:41;;;;;;;42.57;21.63;;;12.00;99.90;;;;;;5014102;28;20500;-84
2022/10/11 09:05:34;;;;;;;36.27;20.27;;;12.10;99.90;;;;;;5010650;28;20554;-83
2022/10/11 09:08:21;;;;;;;37.50;20.83;;;12.10;99.90;;;;;;5009950;28;20478;-83
2022/10/11 09:10:56;;;;;;;36.57;19.93;;;12.00;99.90;;;;;;5005213;28;20492;-82
2022/10/11 09:13:57;;;;;;;37.57;21.20;;;12.00;99.90;;;;;;5000835;28;20458;-82
2022/10/11 09:16:52;;;;;;;32.87;19.93;;;11.90;99.90;;;;;;5016415;28;20469;-80
2022/10/11 09:19:35;;;;;;;30.23;18.87;;;12.20;99.90;;;;;;5015473;28;20446;-83
2022/10/11 09:22:43;;;;;;;40.67;20.90;;;12.30;99.90;;;;;;5020347;28;20497;-83
2022/10/11 09:25:17;;;;;;;37.60;20.47;;;12.40;99.90;;;;;;5013878;28;20478;-83
2022/10/11 09:28:18;;;;;;;41.83;22.80;;;12.50;99.90;;;;;;5012885;28;20478;-82
2022/10/11 09:30:48;;;;;;;38.10;19.97;;;12.50;99.90;;;;;;5016783;28;20537;-84
2022/10/11 09:33:35;;;;;;;42.40;21.60;;;12.80;99.90;;;;;;5011130;28;20545;-83
2022/10/11 09:36:32;;;;;;;38.10;20.23;;;12.80;99.90;;;;;;5008254;28;20489;-83
2022/10/11 09:39:21;;;;;;;35.93;20.47;;;12.70;99.90;;;;;;5013948;28;20542;-82
2022/10/11 09:41:54;;;;;;;42.37;20.87;;;12.70;99.90;;;;;;5015685;28;20462;-82
2022/10/11 09:44:22;;;;;;;44.87;22.10;;;12.80;99.90;;;;;;5002708;28;20481;-83
2022/10/11 09:46:50;;;;;;;38.00;23.57;;;12.80;99.90;;;;;;5012681;28;20513;-84
2022/10/11 09:49:20;;;;;;;45.93;22.80;;;12.90;99.90;;;;;;5018341;28;20994;-84
2022/10/11 09:51:56;;;;;;;41.93;23.27;;;12.90;99.90;;;;;;5021594;28;20520;-82
2022/10/11 09:54:43;;;;;;;39.27;24.67;;;12.90;99.90;;;;;;5021074;28;20460;-83
2022/10/11 09:57:18;;;;;;;41.27;22.23;;;12.80;99.90;;;;;;5019664;28;20466;-84
2022/10/11 10:00:17;;;;;;;31.63;19.73;;;12.50;99.90;;;;;;5021519;28;20492;-83
2022/10/11 10:02:48;;;;;;;38.00;21.60;;;12.60;99.90;;;;;;5018664;28;20466;-82
2022/10/11 10:05:16;;;;;;;34.43;22.00;;;13.00;99.90;;;;;;5038433;28;20485;-81
2022/10/11 10:08:03;;;;;;;33.10;22.07;;;12.90;99.90;;;;;;5038431;28;20585;-81
2022/10/11 10:10:53;;;;;;;35.00;21.17;;;13.10;99.90;;;;;;5036995;28;20446;-84
2022/10/11 10:13:52;;;;;;;33.33;19.33;;;13.10;99.90;;;;;;5030540;28;20537;-82
2022/10/11 10:16:28;;;;;;;33.67;21.47;;;13.80;99.90;;;;;;5021181;28;20501;-83
2022/10/11 10:19:03;;;;;;;34.10;21.40;;;13.90;99.90;;;;;;5018039;28;20468;-81
2022/10/11 10:21:34;;;;;;;31.37;20.57;;;14.30;99.90;;;;;;5020960;28;20453;-83
2022/10/11 10:24:07;;;;;;;30.67;19.43;;;14.10;99.90;;;;;;5026828;28;20434;-84
2022/10/11 10:26:34;;;;;;;34.70;19.00;;;13.80;99.90;;;;;;5009398;28;21022;-83
2022/10/11 10:29:15;;;;;;;37.67;22.40;;;13.80;99.90;;;;;;5015162;28;20521;-83
2022/10/11 10:32:24;;;;;;;33.13;21.53;;;14.10;99.90;;;;;;5025834;28;20458;-83
2022/10/11 10:35:06;;;;;;;29.13;19.37;;;14.20;99.90;;;;;;5012838;28;20443;-83
2022/10/11 10:37:44;;;;;;;35.60;19.97;;;14.50;99.90;;;;;;5009685;28;20469;-83
2022/10/11 10:40:20;;;;;;;31.33;20.90;;;14.60;99.60;;;;;;5012205;28;20964;-81
2022/10/11 10:42:48;;;;;;;31.60;18.63;;;14.70;99.20;;;;;;5017225;28;20496;-83
2022/10/11 10:45:17;;;;;;;27.73;18.83;;;14.30;99.60;;;;;;5017324;28;21282;-80
2022/10/11 10:48:26;;;;;;;28.53;19.00;;;14.50;99.60;;;;;;5011573;28;20581;-84
2022/10/11 10:51:02;;;;;;;29.37;18.23;;;14.10;99.80;;;;;;4999550;28;20979;-84
2022/10/11 10:53:43;;;;;;;30.73;17.80;;;14.20;99.90;;;;;;5010036;28;21054;-84
2022/10/11 10:56:17;;;;;;;28.37;17.90;;;14.30;99.90;;;;;;5010173;28;20470;-83
2022/10/11 10:59:00;;;;;;;30.50;16.70;;;14.20;99.90;;;;;;5025396;28;21038;-84
2022/10/11 11:01:30;;;;;;;22.73;14.63;;;14.10;99.90;;;;;;5017092;28;20940;-82
2022/10/11 11:04:09;;;;;;;22.47;13.70;;;14.70;99.40;;;;;;5015817;28;20486;-82
2022/10/11 11:06:47;;;;;;;27.83;15.57;;;14.80;98.50;;;;;;5012549;28;20573;-82
2022/10/11 11:09:26;;;;;;;22.13;14.87;;;14.50;98.70;;;;;;5014278;28;20518;-84
2022/10/11 11:12:25;;;;;;;31.27;18.37;;;14.30;99.30;;;;;;5010950;28;20439;-83
2022/10/11 11:15:10;;;;;;;23.40;16.60;;;14.10;99.80;;;;;;5006385;28;20459;-84
2022/10/11 11:17:53;;;;;;;27.10;14.83;;;14.30;99.90;;;;;;5015735;28;20474;-84
2022/10/11 11:20:23;;;;;;;23.83;13.30;;;14.70;99.90;;;;;;5004458;28;20498;-82
2022/10/11 11:23:26;;;;;;;24.13;13.03;;;14.90;99.00;;;;;;5015660;28;20448;-83
2022/10/11 11:26:07;;;;;;;26.90;15.40;;;15.30;97.40;;;;;;5016108;28;20473;-82
2022/10/11 11:29:14;;;;;;;24.27;14.30;;;15.20;97.30;;;;;;5010747;28;20574;-83
2022/10/11 11:32:09;;;;;;;29.67;15.50;;;15.10;98.20;;;;;;4951991;29;20448;-83
2022/10/11 11:34:39;;;;;;;22.03;13.00;;;15.30;98.00;;;;;;5011641;28;20521;-83
2022/10/11 11:37:30;;;;;;;24.67;16.70;;;15.30;97.50;;;;;;5023985;28;20471;-84
2022/10/11 11:40:14;;;;;;;21.87;14.40;;;15.50;97.20;;;;;;5040042;28;20441;-83
2022/10/11 11:42:48;;;;;;;21.43;13.70;;;15.60;97.30;;;;;;5025501;28;20438;-84
2022/10/11 11:45:21;;;;;;;22.90;13.10;;;15.40;97.20;;;;;;5024529;28;20816;-83
2022/10/11 11:48:00;;;;;;;26.60;14.73;;;15.60;97.10;;;;;;5029235;28;20488;-83
2022/10/11 11:50:33;;;;;;;24.73;12.60;;;15.30;97.30;;;;;;5026345;28;20640;-82
2022/10/11 11:53:04;;;;;;;23.57;12.13;;;15.20;97.30;;;;;;5016775;28;20443;-83
2022/10/11 11:56:02;;;;;;;15.80;9.70;;;15.10;97.70;;;;;;5019513;28;20524;-83
2022/10/11 11:58:44;;;;;;;17.20;8.83;;;15.30;96.90;;;;;;5016314;28;20454;-84
2022/10/11 12:01:46;;;;;;;16.80;7.33;;;15.70;95.90;;;;;;5011416;28;21022;-83
2022/10/11 12:04:34;;;;;;;13.60;8.37;;;15.70;94.80;;;;;;5015869;28;20457;-83
2022/10/11 12:07:11;;;;;;;17.77;6.50;;;15.50;95.00;;;;;;5010257;28;20474;-82
2022/10/11 12:09:49;;;;;;;10.80;6.20;;;15.40;95.20;;;;;;5015708;28;20477;-83
2022/10/11 12:12:35;;;;;;;10.77;6.10;;;15.30;95.00;;;;;;5016673;28;20453;-82
2022/10/11 12:15:07;;;;;;;12.63;7.20;;;15.80;94.50;;;;;;5018533;28;20516;-83
2022/10/11 12:17:54;;;;;;;15.23;6.20;;;15.90;93.50;;;;;;5017803;28;20442;-84
2022/10/11 12:20:22;;;;;;;12.30;6.23;;;16.00;93.20;;;;;;5016821;28;20442;-83
2022/10/11 12:22:48;;;;;;;9.53;5.13;;;16.20;91.90;;;;;;5017046;28;20482;-82
2022/10/11 12:25:21;;;;;;;9.37;5.27;;;16.20;92.30;;;;;;5020957;28;20485;-82
2022/10/11 12:27:50;;;;;;;8.80;4.70;;;16.30;91.30;;;;;;5029349;28;20554;-82
2022/10/11 12:30:53;;;;;;;11.07;6.17;;;16.60;90.10;;;;;;5022942;28;20486;-83
2022/10/11 12:33:31;;;;;;;8.00;6.07;;;16.80;90.20;;;;;;5021631;28;20450;-83
2022/10/11 12:36:01;;;;;;;15.47;5.73;;;16.90;90.50;;;;;;5018180;28;20474;-83
2022/10/11 12:38:36;;;;;;;13.87;6.80;;;17.30;90.00;;;;;;5021881;28;20431;-84
2022/10/11 12:41:08;;;;;;;11.77;7.03;;;17.60;89.00;;;;;;5032398;28;20439;-83
2022/10/11 12:43:46;;;;;;;11.70;5.40;;;17.70;88.00;;;;;;5029339;28;20461;-83
2022/10/11 12:46:38;;;;;;;10.30;4.90;;;17.80;87.60;;;;;;5031392;28;20493;-84
2022/10/11 12:49:29;;;;;;;11.07;6.50;;;18.30;84.30;;;;;;5019301;28;20462;-84
2022/10/11 12:51:56;;;;;;;8.47;4.80;;;18.30;82.90;;;;;;5024128;28;20589;-82
2022/10/11 12:54:45;;;;;;;8.50;5.70;;;18.40;82.90;;;;;;5016798;28;20474;-81
2022/10/11 12:57:49;;;;;;;13.97;5.83;;;18.10;82.70;;;;;;5005792;28;20454;-82
2022/10/11 13:00:29;;;;;;;9.67;5.00;;;18.00;82.50;;;;;;5030091;28;20839;-82
2022/10/11 13:03:25;;;;;;;10.80;4.57;;;17.60;83.80;;;;;;5023669;28;20446;-81
2022/10/11 13:05:58;;;;;;;8.20;4.13;;;17.60;84.50;;;;;;5020971;28;20461;-84
2022/10/11 13:08:36;;;;;;;5.83;4.20;;;17.60;83.80;;;;;;5038695;28;20588;-83